createdAt,value
2023-01-13T05:38:30.962Z,30.60
2023-01-13T05:39:31.944Z,32.70
2023-01-13T05:40:31.986Z,30.80
2023-01-13T05:41:31.909Z,30.60
2023-01-13T05:42:31.909Z,27.10
2023-01-13T05:43:31.930Z,30.00
2023-01-13T05:44:31.870Z,31.30
2023-01-13T05:45:31.870Z,30.60
2023-01-13T05:46:31.856Z,28.10
2023-01-13T05:47:31.848Z,31.40
2023-01-13T05:48:31.835Z,31.90
2023-01-13T06:13:02.667Z,29.10
2023-01-13T06:14:03.631Z,31.30
2023-01-13T06:15:03.613Z,30.90
2023-01-13T06:16:03.640Z,27.00
2023-01-13T06:17:03.580Z,26.40
2023-01-13T09:06:02.190Z,18.60
2023-01-13T09:07:03.367Z,19.10
2023-01-13T11:48:28.015Z,20.50
2023-01-13T11:49:28.983Z,21.40
2023-01-13T11:50:28.964Z,22.90
2023-01-13T11:51:28.971Z,20.40
2023-01-13T11:52:28.941Z,20.30
2023-01-13T14:41:42.543Z,30.50
2023-01-13T14:42:43.519Z,25.10
2023-01-13T14:43:43.488Z,33.30
2023-01-13T14:44:43.493Z,45.40
2023-01-13T14:54:07.647Z,25.30
2023-01-13T14:55:08.609Z,30.10
2023-01-13T14:56:08.633Z,31.80
2023-01-13T15:03:08.718Z,12.70
2023-01-13T15:04:09.623Z,16.80
2023-01-13T15:05:09.646Z,16.40
2023-01-13T15:06:09.593Z,23.90
2023-01-13T15:07:09.594Z,19.90
2023-01-13T15:08:09.598Z,25.20
2023-01-13T15:43:26.445Z,29.50
2023-01-13T15:44:27.425Z,27.50
2023-01-13T15:45:27.413Z,24.60
2023-01-13T15:46:27.467Z,27.00
2023-01-13T15:47:28.078Z,26.70
2023-01-13T15:48:27.380Z,28.20
2023-01-13T16:06:57.197Z,23.20
2023-01-13T16:07:58.166Z,20.80
2023-01-13T16:08:58.159Z,19.50
2023-01-13T16:09:58.157Z,19.90
2023-01-13T16:10:58.179Z,23.30
2023-01-13T16:11:58.164Z,22.70
2023-01-13T16:12:58.113Z,25.80
2023-01-13T16:13:58.115Z,30.70
2023-01-13T16:14:58.084Z,27.00
2023-01-13T16:15:58.106Z,40.00
2023-01-13T16:16:58.134Z,41.80
2023-01-13T16:17:58.104Z,36.70
2023-01-13T16:18:58.141Z,27.20
2023-01-13T16:19:58.113Z,22.40
2023-01-13T16:20:58.027Z,20.20
2023-01-13T16:21:58.033Z,25.50
2023-01-13T16:22:58.007Z,24.00
2023-01-13T16:23:58.014Z,23.90
2023-01-13T16:24:58.011Z,26.70
2023-01-13T16:25:58.023Z,29.40
2023-01-13T16:26:58.217Z,29.10
2023-01-13T16:27:58.011Z,35.30
2023-01-13T16:28:58.022Z,28.80
2023-01-13T16:29:57.995Z,28.40
2023-01-13T16:30:57.939Z,22.60
2023-01-13T16:31:57.943Z,23.10
2023-01-13T16:32:57.916Z,36.90
2023-01-13T16:33:57.959Z,26.70
2023-01-13T16:34:59.741Z,21.20
2023-01-13T16:36:11.865Z,24.60
2023-01-13T16:36:57.926Z,28.40
2023-01-13T16:40:31.309Z,25.80
2023-01-13T16:41:31.950Z,20.20
2023-01-13T16:42:31.835Z,22.20
2023-01-13T18:06:11.619Z,40.00
2023-01-13T18:41:52.406Z,31.50
2023-01-13T20:16:09.444Z,37.60
2023-01-13T20:17:27.433Z,35.20
2023-01-13T20:24:50.189Z,31.80
2023-01-13T21:20:54.300Z,22.50
2023-01-13T21:21:55.309Z,27.30
2023-01-13T21:22:55.266Z,32.90
2023-01-13T21:23:55.235Z,31.90
2023-01-13T21:24:55.229Z,29.60
2023-01-13T23:05:49.011Z,34.80
2023-01-13T23:06:49.965Z,34.30
2023-01-13T23:07:49.954Z,34.40
2023-01-13T23:08:49.959Z,38.80
2023-01-13T23:09:49.932Z,45.70
2023-01-13T23:10:49.907Z,46.40
2023-01-13T23:11:49.959Z,52.40
2023-01-13T23:12:49.880Z,53.90
2023-01-13T23:13:49.917Z,46.60
2023-01-13T23:14:49.877Z,51.80
2023-01-13T23:15:49.856Z,40.80
2023-01-13T23:16:49.856Z,36.90
2023-01-13T23:17:49.839Z,41.90
2023-01-13T23:18:49.845Z,36.10
2023-01-13T23:19:49.815Z,34.70
2023-01-13T23:20:49.808Z,31.30
2023-01-13T23:21:49.800Z,37.70
2023-01-13T23:22:49.809Z,29.90
2023-01-13T23:23:49.781Z,32.80
2023-01-13T23:24:49.747Z,29.50
2023-01-13T23:25:49.752Z,36.40
2023-01-13T23:26:49.727Z,32.10
2023-01-13T23:27:49.767Z,41.30
2023-01-13T23:28:49.747Z,51.70
2023-01-13T23:29:49.707Z,81.50
2023-01-13T23:30:49.719Z,83.90
2023-01-13T23:31:49.688Z,84.40
2023-01-13T23:32:49.658Z,83.70
2023-01-13T23:33:49.660Z,77.80
2023-01-13T23:34:49.669Z,65.60
2023-01-13T23:35:49.637Z,51.40
2023-01-13T23:36:49.652Z,44.80
2023-01-13T23:37:49.660Z,41.30
2023-01-13T23:38:49.597Z,47.90
2023-01-13T23:39:49.860Z,43.90
2023-01-13T23:40:49.570Z,52.50
2023-01-13T23:41:49.607Z,41.10
2023-01-13T23:42:49.582Z,35.00
